Time;durP1;ratioP1;P1;durP2;ratioP2;P2;SDS_P1;SDS_P2;PMS_P1;PMS_P2;Temp;Humidity;BMP_temperature;BMP_pressure;BME280_temperature;BME280_humidity;BME280_pressure;Samples;Min_cycle;Max_cycle;Signal;HPM_P1;HPM_P2
2023/08/28 00:01:14;;;;;;;3.58;2.38;;;;;;;;;;4869328;29;20052;-93
2023/08/28 00:03:42;;;;;;;7.15;3.25;;;;;;;;;;4867513;29;20053;-94
2023/08/28 00:06:09;;;;;;;3.50;2.75;;;;;;;;;;4882536;29;20057;-92
2023/08/28 00:08:37;;;;;;;3.92;2.75;;;;;;;;;;4884900;29;20053;-93
2023/08/28 00:11:08;;;;;;;3.88;2.60;;;;;;;;;;4876830;29;20053;-94
2023/08/28 00:13:36;;;;;;;4.95;3.30;;;;;;;;;;4885176;29;20053;-94
2023/08/28 00:16:04;;;;;;;2.75;2.20;;;;;;;;;;4867621;29;20059;-93
2023/08/28 00:18:34;;;;;;;5.30;2.38;;;;;;;;;;4874059;29;20048;-93
2023/08/28 00:21:02;;;;;;;3.08;2.60;;;;;;;;;;4881115;29;20068;-94
2023/08/28 00:23:32;;;;;;;4.57;2.17;;;;;;;;;;4887288;29;20048;-93
2023/08/28 00:26:00;;;;;;;16.05;2.95;;;;;;;;;;4864128;29;20053;-94
2023/08/28 00:28:29;;;;;;;4.40;2.75;;;;;;;;;;4876830;29;20056;-93
2023/08/28 00:30:59;;;;;;;2.33;1.63;;;;;;;;;;4873273;29;20045;-93
2023/08/28 00:33:28;;;;;;;4.82;2.80;;;;;;;;;;4865503;29;20053;-93
2023/08/28 00:35:55;;;;;;;4.57;2.63;;;;;;;;;;4870779;29;20060;-93
2023/08/28 00:38:23;;;;;;;3.22;1.98;;;;;;;;;;4849475;29;20061;-94
2023/08/28 00:40:52;;;;;;;2.10;1.90;;;;;;;;;;4871284;29;20053;-93
2023/08/28 00:43:21;;;;;;;4.03;2.70;;;;;;;;;;4863415;29;20061;-92
2023/08/28 00:45:49;;;;;;;5.53;3.33;;;;;;;;;;4878028;29;20053;-92
2023/08/28 00:48:20;;;;;;;6.53;3.03;;;;;;;;;;4865500;29;20052;-94
2023/08/28 00:50:52;;;;;;;8.00;2.92;;;;;;;;;;4860795;29;20061;-93
2023/08/28 00:53:19;;;;;;;4.45;2.28;;;;;;;;;;4893679;29;20048;-94
2023/08/28 00:55:47;;;;;;;5.05;2.17;;;;;;;;;;4876930;29;20056;-92
2023/08/28 00:58:14;;;;;;;4.22;2.55;;;;;;;;;;4863753;29;20057;-93
2023/08/28 01:00:42;;;;;;;5.18;2.17;;;;;;;;;;4874635;29;20079;-91
2023/08/28 01:03:09;;;;;;;6.70;3.00;;;;;;;;;;4860761;29;20049;-93
2023/08/28 01:05:44;;;;;;;3.28;2.63;;;;;;;;;;4868564;29;20053;-92
2023/08/28 01:08:16;;;;;;;4.95;3.17;;;;;;;;;;4884137;29;20084;-93
2023/08/28 01:10:50;;;;;;;4.85;2.53;;;;;;;;;;4865159;29;20044;-94
2023/08/28 01:13:23;;;;;;;5.38;3.00;;;;;;;;;;4861711;29;20057;-94
2023/08/28 01:15:50;;;;;;;3.70;3.22;;;;;;;;;;4869096;29;20049;-94
2023/08/28 01:18:22;;;;;;;6.38;2.60;;;;;;;;;;4885061;29;20715;-95
2023/08/28 01:20:50;;;;;;;4.65;2.78;;;;;;;;;;4863252;29;20052;-94
2023/08/28 01:23:24;;;;;;;3.42;2.60;;;;;;;;;;4873661;29;20057;-95
2023/08/28 01:25:54;;;;;;;13.43;2.97;;;;;;;;;;4870575;29;20516;-93
2023/08/28 01:28:25;;;;;;;6.30;3.10;;;;;;;;;;4884273;29;20041;-95
2023/08/28 01:30:53;;;;;;;4.30;3.03;;;;;;;;;;4849443;29;20476;-94
2023/08/28 01:33:21;;;;;;;5.97;4.80;;;;;;;;;;4870921;29;20057;-95
2023/08/28 01:35:54;;;;;;;6.03;4.35;;;;;;;;;;4881386;29;20053;-93
2023/08/28 01:38:28;;;;;;;3.83;3.42;;;;;;;;;;4872240;29;20057;-95
2023/08/28 01:40:59;;;;;;;5.95;3.78;;;;;;;;;;4866417;29;20055;-93
2023/08/28 01:43:32;;;;;;;6.70;4.32;;;;;;;;;;4869365;29;20060;-94
2023/08/28 01:46:00;;;;;;;9.48;4.18;;;;;;;;;;4877463;29;20048;-93
2023/08/28 01:48:29;;;;;;;6.05;4.07;;;;;;;;;;4874540;29;20531;-93
2023/08/28 01:50:57;;;;;;;9.05;5.30;;;;;;;;;;4862666;29;20041;-94
2023/08/28 01:53:27;;;;;;;6.40;4.90;;;;;;;;;;4866001;29;20050;-94
2023/08/28 01:56:16;;;;;;;8.15;5.93;;;;;;;;;;4882304;29;20057;-93
2023/08/28 01:58:45;;;;;;;6.38;5.18;;;;;;;;;;4850754;29;20053;-93
2023/08/28 02:01:12;;;;;;;7.85;5.05;;;;;;;;;;4879860;29;20053;-94
2023/08/28 02:03:42;;;;;;;5.32;4.80;;;;;;;;;;4866577;29;20049;-94
2023/08/28 02:06:10;;;;;;;5.38;4.25;;;;;;;;;;4868773;29;20061;-93
2023/08/28 02:08:40;;;;;;;5.25;3.85;;;;;;;;;;4871849;29;20060;-94
2023/08/28 02:11:08;;;;;;;5.57;4.90;;;;;;;;;;4872838;29;20049;-92
2023/08/28 02:13:36;;;;;;;4.78;4.18;;;;;;;;;;4881049;29;20258;-94
2023/08/28 02:16:04;;;;;;;4.10;3.70;;;;;;;;;;4866094;29;20056;-93
2023/08/28 02:18:32;;;;;;;5.57;4.32;;;;;;;;;;4878352;29;20056;-91
2023/08/28 02:21:00;;;;;;;6.32;4.70;;;;;;;;;;4866696;29;20053;-93
2023/08/28 02:23:28;;;;;;;5.25;4.13;;;;;;;;;;4874376;29;20056;-93
2023/08/28 02:25:57;;;;;;;8.18;4.00;;;;;;;;;;4873605;29;20409;-94
2023/08/28 02:28:26;;;;;;;4.72;3.78;;;;;;;;;;4883323;29;20059;-93
2023/08/28 02:30:53;;;;;;;5.20;3.40;;;;;;;;;;4882849;29;20037;-92
2023/08/28 02:33:23;;;;;;;4.57;3.60;;;;;;;;;;4880285;29;20052;-93
2023/08/28 02:35:51;;;;;;;4.13;3.08;;;;;;;;;;4869721;29;20057;-93
2023/08/28 02:38:19;;;;;;;4.10;3.65;;;;;;;;;;4879983;29;20226;-93
2023/08/28 02:40:49;;;;;;;4.63;3.60;;;;;;;;;;4850287;29;20056;-93
2023/08/28 02:43:18;;;;;;;5.72;3.05;;;;;;;;;;4873003;29;20064;-93
2023/08/28 02:45:50;;;;;;;3.88;3.20;;;;;;;;;;4883464;29;20053;-93
2023/08/28 02:48:18;;;;;;;6.45;4.10;;;;;;;;;;4866720;29;20060;-94
2023/08/28 02:50:49;;;;;;;3.45;3.15;;;;;;;;;;4870255;29;20037;-94
2023/08/28 02:53:16;;;;;;;4.57;2.47;;;;;;;;;;4869572;29;20061;-94
2023/08/28 02:56:11;;;;;;;3.55;2.40;;;;;;;;;;4887207;29;20060;-93
2023/08/28 02:58:38;;;;;;;3.78;3.00;;;;;;;;;;4866721;29;20052;-93
2023/08/28 03:01:07;;;;;;;17.13;3.53;;;;;;;;;;4869232;29;20060;-93
2023/08/28 03:03:36;;;;;;;7.53;3.65;;;;;;;;;;4870383;29;20061;-93
2023/08/28 03:06:05;;;;;;;4.93;2.83;;;;;;;;;;4870465;29;20057;-94
2023/08/28 03:08:36;;;;;;;4.60;3.45;;;;;;;;;;4859784;29;20049;-92
2023/08/28 03:11:06;;;;;;;3.47;3.17;;;;;;;;;;4873794;29;20053;-93
2023/08/28 03:13:35;;;;;;;4.10;2.90;;;;;;;;;;4887200;29;20060;-93
2023/08/28 03:16:03;;;;;;;3.47;2.55;;;;;;;;;;4885914;29;20057;-93
2023/08/28 03:18:34;;;;;;;3.17;2.72;;;;;;;;;;4871522;29;20049;-94
2023/08/28 03:21:03;;;;;;;3.03;2.50;;;;;;;;;;4880562;29;20041;-93
2023/08/28 03:23:31;;;;;;;3.33;2.67;;;;;;;;;;4865361;29;20057;-93
2023/08/28 03:25:59;;;;;;;2.28;2.08;;;;;;;;;;4879460;29;20052;-93
2023/08/28 03:28:26;;;;;;;3.55;2.42;;;;;;;;;;4852467;29;20049;-93
2023/08/28 03:30:57;;;;;;;5.78;2.83;;;;;;;;;;4883184;29;20060;-94
2023/08/28 03:33:24;;;;;;;2.97;2.67;;;;;;;;;;4886912;29;20060;-93
2023/08/28 03:35:54;;;;;;;4.32;3.17;;;;;;;;;;4882900;29;20064;-94
2023/08/28 03:38:24;;;;;;;7.75;3.35;;;;;;;;;;4868567;29;20064;-94
2023/08/28 03:40:55;;;;;;;2.95;2.22;;;;;;;;;;4852977;29;20053;-94
2023/08/28 03:43:25;;;;;;;4.03;2.33;;;;;;;;;;4886766;29;20060;-94
2023/08/28 03:45:53;;;;;;;6.47;2.35;;;;;;;;;;4867071;29;20623;-93
2023/08/28 03:48:21;;;;;;;3.55;2.67;;;;;;;;;;4867866;29;20082;-93
2023/08/28 03:50:48;;;;;;;4.60;2.25;;;;;;;;;;4875711;29;20424;-94
2023/08/28 03:53:17;;;;;;;6.15;2.88;;;;;;;;;;4898631;29;20505;-93
2023/08/28 03:55:45;;;;;;;4.57;2.65;;;;;;;;;;4875382;29;20665;-93
2023/08/28 03:58:14;;;;;;;3.78;2.20;;;;;;;;;;4887602;29;20053;-93
2023/08/28 04:00:41;;;;;;;3.65;2.80;;;;;;;;;;4868686;29;20056;-93
2023/08/28 04:03:08;;;;;;;2.35;2.15;;;;;;;;;;4886847;29;20044;-93
2023/08/28 04:05:38;;;;;;;2.30;2.10;;;;;;;;;;4887618;29;20049;-94
2023/08/28 04:08:05;;;;;;;2.97;2.33;;;;;;;;;;4883531;29;20150;-94
2023/08/28 04:10:37;;;;;;;3.30;2.95;;;;;;;;;;4877131;29;20037;-94
2023/08/28 04:13:04;;;;;;;4.20;2.65;;;;;;;;;;4869277;29;20080;-95
2023/08/28 04:15:33;;;;;;;2.90;2.10;;;;;;;;;;4883926;29;20053;-95
2023/08/28 04:18:02;;;;;;;2.60;2.08;;;;;;;;;;4879965;29;20060;-93
2023/08/28 04:20:30;;;;;;;4.10;2.92;;;;;;;;;;4872059;29;20061;-95
2023/08/28 04:22:57;;;;;;;2.72;2.08;;;;;;;;;;4873058;29;20073;-94
2023/08/28 04:25:25;;;;;;;2.65;2.20;;;;;;;;;;4885875;29;20053;-94
2023/08/28 04:27:54;;;;;;;5.32;2.58;;;;;;;;;;4884477;29;20056;-95
2023/08/28 04:30:22;;;;;;;2.55;2.30;;;;;;;;;;4873347;29;21384;-94
2023/08/28 04:32:49;;;;;;;4.55;2.08;;;;;;;;;;4860915;29;20037;-92
2023/08/28 04:35:21;;;;;;;2.95;2.63;;;;;;;;;;4897935;29;20039;-94
2023/08/28 04:37:50;;;;;;;1.90;1.50;;;;;;;;;;4881412;29;20045;-94
2023/08/28 04:40:18;;;;;;;2.33;2.00;;;;;;;;;;4880308;29;20097;-94
2023/08/28 04:42:47;;;;;;;4.82;2.80;;;;;;;;;;4881248;29;20044;-95
2023/08/28 04:45:16;;;;;;;2.85;2.55;;;;;;;;;;4880859;29;20064;-94
2023/08/28 04:47:44;;;;;;;6.65;2.33;;;;;;;;;;4881221;29;20052;-94
2023/08/28 04:50:11;;;;;;;3.33;2.33;;;;;;;;;;4868093;29;20052;-95
2023/08/28 04:52:38;;;;;;;4.05;2.72;;;;;;;;;;4883216;29;20063;-95
2023/08/28 04:55:09;;;;;;;9.20;2.67;;;;;;;;;;4882135;29;20055;-95
2023/08/28 04:57:37;;;;;;;3.30;2.03;;;;;;;;;;4881835;29;20053;-94
2023/08/28 05:00:07;;;;;;;1.88;1.73;;;;;;;;;;4871448;29;20052;-95
2023/08/28 05:02:38;;;;;;;4.22;2.40;;;;;;;;;;4883673;29;20140;-95
2023/08/28 05:05:06;;;;;;;3.88;2.03;;;;;;;;;;4872359;29;20405;-95
2023/08/28 05:07:34;;;;;;;2.28;1.90;;;;;;;;;;4882910;29;20063;-94
2023/08/28 05:10:03;;;;;;;4.88;2.30;;;;;;;;;;4875692;29;20053;-94
2023/08/28 05:12:31;;;;;;;4.35;2.22;;;;;;;;;;4884115;29;20205;-94
2023/08/28 05:14:58;;;;;;;4.50;2.30;;;;;;;;;;4900660;29;20045;-94
2023/08/28 05:17:25;;;;;;;3.05;1.60;;;;;;;;;;4895854;29;20061;-95
2023/08/28 05:19:54;;;;;;;2.75;1.95;;;;;;;;;;4882312;29;20049;-93
2023/08/28 05:22:22;;;;;;;4.03;2.03;;;;;;;;;;4885192;29;20048;-93
2023/08/28 05:24:49;;;;;;;2.45;1.95;;;;;;;;;;4882342;29;20257;-95
2023/08/28 05:27:19;;;;;;;2.92;2.00;;;;;;;;;;4894748;29;20051;-93
2023/08/28 05:29:48;;;;;;;2.83;2.13;;;;;;;;;;4895739;29;20045;-93
2023/08/28 05:32:16;;;;;;;2.72;2.53;;;;;;;;;;4881225;29;20061;-92
2023/08/28 05:34:43;;;;;;;4.28;2.00;;;;;;;;;;4882462;29;20061;-95
2023/08/28 05:37:12;;;;;;;2.95;2.70;;;;;;;;;;4891456;29;20435;-93
2023/08/28 05:39:39;;;;;;;2.50;2.30;;;;;;;;;;4873510;29;20056;-95
2023/08/28 05:42:07;;;;;;;4.35;2.10;;;;;;;;;;4877041;29;20041;-93
2023/08/28 05:44:37;;;;;;;3.65;2.83;;;;;;;;;;4863082;29;20048;-93
2023/08/28 05:47:04;;;;;;;5.28;2.25;;;;;;;;;;4879214;29;20453;-94
2023/08/28 05:49:32;;;;;;;6.32;2.13;;;;;;;;;;4873542;29;20033;-93
2023/08/28 05:51:59;;;;;;;4.05;2.30;;;;;;;;;;4854737;29;20049;-95
2023/08/28 05:54:31;;;;;;;3.08;2.33;;;;;;;;;;4882453;29;20057;-93
2023/08/28 05:56:59;;;;;;;3.08;1.95;;;;;;;;;;4875876;29;20501;-93
2023/08/28 05:59:28;;;;;;;2.35;1.80;;;;;;;;;;4879814;29;20045;-92
2023/08/28 06:01:55;;;;;;;2.33;1.73;;;;;;;;;;4848609;29;20053;-93
2023/08/28 06:04:23;;;;;;;2.72;1.98;;;;;;;;;;4853177;29;20420;-91
2023/08/28 06:06:52;;;;;;;2.60;1.60;;;;;;;;;;4866438;29;20053;-93
2023/08/28 06:09:19;;;;;;;1.90;1.60;;;;;;;;;;4880823;29;20056;-93
2023/08/28 06:11:49;;;;;;;4.50;2.30;;;;;;;;;;4864954;29;20049;-93
2023/08/28 06:14:17;;;;;;;3.13;1.77;;;;;;;;;;4863261;29;20067;-93
2023/08/28 06:16:44;;;;;;;1.73;1.60;;;;;;;;;;4862949;29;20432;-92
2023/08/28 06:19:12;;;;;;;3.25;1.88;;;;;;;;;;4866306;29;20053;-93
2023/08/28 06:21:44;;;;;;;6.03;1.40;;;;;;;;;;4853071;29;20049;-93
2023/08/28 06:24:12;;;;;;;4.53;1.73;;;;;;;;;;4888803;29;20048;-94
2023/08/28 06:26:43;;;;;;;2.85;1.83;;;;;;;;;;4854873;29;20057;-92
2023/08/28 06:29:13;;;;;;;3.10;1.65;;;;;;;;;;4876336;29;20041;-94
2023/08/28 06:31:41;;;;;;;2.92;1.92;;;;;;;;;;4895472;29;20755;-93
2023/08/28 06:34:09;;;;;;;2.92;2.05;;;;;;;;;;4881109;29;20064;-94
2023/08/28 06:36:39;;;;;;;1.52;1.40;;;;;;;;;;4897170;29;20055;-91
2023/08/28 06:39:09;;;;;;;2.90;1.80;;;;;;;;;;4879668;29;20055;-93
2023/08/28 06:41:37;;;;;;;2.28;1.85;;;;;;;;;;4895249;29;20065;-93
2023/08/28 06:44:07;;;;;;;6.78;2.03;;;;;;;;;;4882412;29;20059;-92
2023/08/28 06:46:38;;;;;;;2.20;1.85;;;;;;;;;;4891781;29;20042;-93
2023/08/28 06:49:09;;;;;;;2.33;1.83;;;;;;;;;;4875482;29;20049;-94
2023/08/28 06:51:38;;;;;;;3.72;1.65;;;;;;;;;;4883816;29;20041;-93
2023/08/28 06:54:09;;;;;;;4.65;1.63;;;;;;;;;;4882546;29;20038;-93
2023/08/28 06:56:36;;;;;;;3.40;1.58;;;;;;;;;;4867555;29;20033;-93
2023/08/28 06:59:04;;;;;;;3.55;2.15;;;;;;;;;;4875757;29;20041;-92
2023/08/28 07:01:32;;;;;;;2.92;2.00;;;;;;;;;;4869087;29;20054;-91
2023/08/28 07:04:01;;;;;;;7.95;2.38;;;;;;;;;;4858421;29;20415;-92
2023/08/28 07:06:31;;;;;;;7.20;3.25;;;;;;;;;;4870273;29;20058;-92
2023/08/28 07:09:01;;;;;;;2.42;2.22;;;;;;;;;;4870330;29;20429;-92
2023/08/28 07:11:28;;;;;;;6.40;2.08;;;;;;;;;;4867496;29;20054;-93
2023/08/28 07:13:56;;;;;;;4.10;1.73;;;;;;;;;;4871244;29;20041;-93
2023/08/28 07:16:24;;;;;;;2.78;2.00;;;;;;;;;;4853757;29;20057;-92
2023/08/28 07:18:55;;;;;;;7.32;2.55;;;;;;;;;;4868649;29;20053;-93
2023/08/28 07:21:26;;;;;;;1.77;1.63;;;;;;;;;;4879211;29;20434;-92
2023/08/28 07:23:56;;;;;;;2.72;1.77;;;;;;;;;;4864590;29;20053;-92
2023/08/28 07:26:24;;;;;;;1.90;1.58;;;;;;;;;;4854466;29;20053;-93
2023/08/28 07:28:52;;;;;;;5.50;2.20;;;;;;;;;;4852211;29;20052;-92
2023/08/28 07:31:23;;;;;;;3.92;1.88;;;;;;;;;;4865914;29;20061;-93
2023/08/28 07:33:54;;;;;;;1.98;1.73;;;;;;;;;;4860281;29;20056;-93
2023/08/28 07:36:24;;;;;;;2.95;2.63;;;;;;;;;;4868622;29;20065;-93
2023/08/28 07:38:52;;;;;;;4.65;1.90;;;;;;;;;;4870282;29;20053;-91
2023/08/28 07:41:20;;;;;;;2.00;1.70;;;;;;;;;;4838531;29;1230112;-91
2023/08/28 07:43:48;;;;;;;7.13;2.08;;;;;;;;;;4870895;29;20045;-93
2023/08/28 07:46:20;;;;;;;1.88;1.67;;;;;;;;;;4850191;29;20057;-92
2023/08/28 07:48:51;;;;;;;2.25;2.05;;;;;;;;;;4884729;29;20053;-94
2023/08/28 07:51:19;;;;;;;3.13;1.77;;;;;;;;;;4885560;29;20053;-94
2023/08/28 07:53:48;;;;;;;1.55;1.33;;;;;;;;;;4882838;29;20049;-94
2023/08/28 07:56:16;;;;;;;3.53;1.90;;;;;;;;;;4871875;29;20064;-93
2023/08/28 07:58:45;;;;;;;4.85;1.85;;;;;;;;;;4882855;29;20544;-93
2023/08/28 08:01:13;;;;;;;2.55;1.95;;;;;;;;;;4889980;29;20033;-93
2023/08/28 08:03:41;;;;;;;2.20;1.73;;;;;;;;;;4869312;29;20429;-93
2023/08/28 08:06:09;;;;;;;3.92;2.15;;;;;;;;;;4875954;29;20037;-93
2023/08/28 08:08:37;;;;;;;2.63;1.48;;;;;;;;;;4884383;29;20064;-92
2023/08/28 08:11:09;;;;;;;1.67;1.40;;;;;;;;;;4888456;29;20036;-92
2023/08/28 08:13:36;;;;;;;3.55;1.50;;;;;;;;;;4899896;29;20037;-92
2023/08/28 08:16:06;;;;;;;1.98;1.77;;;;;;;;;;4900940;29;20032;-92
2023/08/28 08:18:34;;;;;;;3.88;1.70;;;;;;;;;;4883149;29;20057;-91
2023/08/28 08:21:05;;;;;;;3.95;2.22;;;;;;;;;;4903733;29;20045;-93
2023/08/28 08:23:36;;;;;;;1.95;1.58;;;;;;;;;;4900455;29;20071;-92
2023/08/28 08:26:04;;;;;;;2.65;2.20;;;;;;;;;;4897733;29;20063;-91
2023/08/28 08:28:34;;;;;;;2.97;1.63;;;;;;;;;;4873226;29;20512;-93
2023/08/28 08:31:01;;;;;;;2.63;1.70;;;;;;;;;;4884576;29;20049;-93
2023/08/28 08:33:29;;;;;;;4.60;1.73;;;;;;;;;;4879737;29;20060;-92
2023/08/28 08:35:57;;;;;;;3.58;1.85;;;;;;;;;;4884828;29;20409;-93
2023/08/28 08:38:25;;;;;;;3.28;1.95;;;;;;;;;;4881333;29;20057;-92
2023/08/28 08:40:54;;;;;;;2.10;1.58;;;;;;;;;;4886131;29;20044;-93
2023/08/28 08:43:22;;;;;;;6.05;1.67;;;;;;;;;;4867010;29;20057;-92
2023/08/28 08:45:59;;;;;;;4.50;1.58;;;;;;;;;;4874070;29;20049;-94
2023/08/28 08:48:28;;;;;;;4.88;2.50;;;;;;;;;;4868899;29;20065;-93
2023/08/28 08:51:04;;;;;;;1.73;1.40;;;;;;;;;;4859238;29;20053;-94
2023/08/28 08:53:42;;;;;;;4.60;2.47;;;;;;;;;;4866086;29;20041;-93
2023/08/28 08:56:13;;;;;;;5.57;2.30;;;;;;;;;;4883598;29;20059;-91
2023/08/28 08:58:41;;;;;;;3.63;2.08;;;;;;;;;;4879053;29;20060;-93
2023/08/28 09:01:10;;;;;;;2.33;1.75;;;;;;;;;;4877469;29;20056;-93
2023/08/28 09:03:42;;;;;;;2.97;2.25;;;;;;;;;;4878507;29;20052;-91
2023/08/28 09:06:11;;;;;;;5.13;2.53;;;;;;;;;;4880126;29;20052;-92
2023/08/28 09:08:40;;;;;;;2.13;1.92;;;;;;;;;;4877977;29;20067;-91
2023/08/28 09:11:08;;;;;;;3.85;1.85;;;;;;;;;;4868348;29;20064;-93
2023/08/28 09:13:36;;;;;;;4.00;2.20;;;;;;;;;;4875462;29;20052;-91
2023/08/28 09:16:04;;;;;;;3.55;2.85;;;;;;;;;;4883152;29;20040;-91
2023/08/28 09:18:34;;;;;;;3.15;2.53;;;;;;;;;;4881767;29;20052;-93
2023/08/28 09:21:16;;;;;;;5.35;1.98;;;;;;;;;;4881616;29;20026;-91
2023/08/28 09:23:56;;;;;;;2.45;2.13;;;;;;;;;;5134016;27;20390;-82
2023/08/28 09:26:23;;;;;;;3.28;2.40;;;;;;;;;;5096504;28;20058;-83
2023/08/28 09:29:00;;;;;;;2.47;2.08;;;;;;;;;;5107611;28;20055;-83
2023/08/28 09:31:42;;;;;;;3.35;2.42;;;;;;;;;;5104819;28;20048;-83
2023/08/28 09:34:10;;;;;;;5.88;2.58;;;;;;;;;;5093857;28;20779;-83
2023/08/28 09:36:40;;;;;;;2.10;2.00;;;;;;;;;;5104022;28;20048;-81
2023/08/28 09:39:09;;;;;;;3.10;1.98;;;;;;;;;;5090119;28;20672;-81
2023/08/28 09:41:37;;;;;;;2.97;2.58;;;;;;;;;;5114460;28;20044;-81
2023/08/28 09:44:05;;;;;;;3.40;2.35;;;;;;;;;;5104323;28;20048;-81
2023/08/28 09:46:32;;;;;;;3.05;1.88;;;;;;;;;;5103609;28;20052;-81
2023/08/28 09:49:00;;;;;;;2.72;2.33;;;;;;;;;;5116260;28;20517;-81
2023/08/28 09:51:41;;;;;;;4.15;2.10;;;;;;;;;;5102447;28;20048;-81
2023/08/28 09:54:10;;;;;;;2.33;2.13;;;;;;;;;;5129468;27;20051;-81
2023/08/28 09:56:38;;;;;;;2.85;1.92;;;;;;;;;;5102509;28;20048;-81
2023/08/28 09:59:06;;;;;;;1.70;1.60;;;;;;;;;;5103445;28;20490;-81
2023/08/28 10:01:35;;;;;;;4.53;1.83;;;;;;;;;;5097326;28;20067;-81
2023/08/28 10:04:06;;;;;;;1.83;1.73;;;;;;;;;;5096345;28;20048;-82
2023/08/28 10:06:35;;;;;;;1.98;1.50;;;;;;;;;;5114783;27;20055;-82
2023/08/28 10:09:21;;;;;;;3.85;2.38;;;;;;;;;;5112690;27;20062;-82
2023/08/28 10:12:02;;;;;;;2.92;1.55;;;;;;;;;;5113792;28;20521;-82
2023/08/28 10:14:31;;;;;;;2.55;1.48;;;;;;;;;;5104870;27;20043;-81
2023/08/28 10:17:05;;;;;;;1.77;1.20;;;;;;;;;;5079312;28;20047;-81
2023/08/28 10:19:38;;;;;;;2.05;1.10;;;;;;;;;;5098557;28;20055;-81
2023/08/28 10:22:09;;;;;;;1.70;1.38;;;;;;;;;;5126596;27;20058;-82
2023/08/28 10:24:41;;;;;;;1.95;1.42;;;;;;;;;;5109033;28;20184;-82
2023/08/28 10:27:16;;;;;;;1.27;0.93;;;;;;;;;;5078617;28;20048;-82
2023/08/28 10:29:44;;;;;;;1.88;1.00;;;;;;;;;;5098344;28;20051;-82
2023/08/28 10:32:14;;;;;;;1.42;0.93;;;;;;;;;;5105820;28;20066;-82
2023/08/28 10:34:42;;;;;;;0.88;0.88;;;;;;;;;;5103841;28;20059;-82
2023/08/28 10:37:10;;;;;;;1.45;0.95;;;;;;;;;;5090217;28;20036;-82
2023/08/28 10:39:41;;;;;;;1.33;1.10;;;;;;;;;;5088577;28;20052;-81
2023/08/28 10:42:13;;;;;;;1.90;1.10;;;;;;;;;;5088627;28;20055;-81
2023/08/28 10:44:41;;;;;;;1.17;1.08;;;;;;;;;;5088585;28;20052;-81
2023/08/28 10:47:14;;;;;;;2.22;1.02;;;;;;;;;;5076888;28;20047;-81
2023/08/28 10:49:41;;;;;;;1.63;1.10;;;;;;;;;;5096847;28;20048;-81
2023/08/28 10:52:08;;;;;;;1.15;1.05;;;;;;;;;;5077861;28;20059;-81
2023/08/28 10:54:37;;;;;;;1.38;0.90;;;;;;;;;;5103266;28;20402;-81
2023/08/28 10:57:10;;;;;;;1.00;0.77;;;;;;;;;;5073374;28;20036;-81
2023/08/28 10:59:46;;;;;;;1.45;1.05;;;;;;;;;;5075764;28;20049;-81
2023/08/28 11:02:15;;;;;;;1.80;0.98;;;;;;;;;;5102352;28;20501;-81
2023/08/28 11:04:43;;;;;;;1.08;0.98;;;;;;;;;;5094813;28;20043;-82
2023/08/28 11:07:42;;;;;;;4.05;1.20;;;;;;;;;;5085720;28;20036;-81
2023/08/28 11:10:17;;;;;;;3.10;1.27;;;;;;;;;;5090461;28;20044;-82
2023/08/28 11:12:51;;;;;;;1.52;1.15;;;;;;;;;;5088850;28;20052;-82
2023/08/28 11:15:27;;;;;;;1.50;1.40;;;;;;;;;;5084413;28;20390;-82
2023/08/28 11:18:15;;;;;;;1.20;0.90;;;;;;;;;;5080201;28;20056;-82
2023/08/28 11:20:42;;;;;;;2.22;1.50;;;;;;;;;;5078347;28;20056;-81
2023/08/28 11:23:08;;;;;;;1.35;0.90;;;;;;;;;;5096708;28;20050;-81
2023/08/28 11:25:37;;;;;;;1.50;1.17;;;;;;;;;;5081941;28;20083;-81
2023/08/28 11:28:05;;;;;;;1.25;1.15;;;;;;;;;;5093595;28;20067;-81
2023/08/28 11:30:36;;;;;;;1.35;1.10;;;;;;;;;;5081866;28;20509;-81
2023/08/28 11:33:05;;;;;;;0.80;0.80;;;;;;;;;;5092706;28;20052;-81
2023/08/28 11:35:33;;;;;;;1.48;1.05;;;;;;;;;;5101297;28;20044;-81
2023/08/28 11:38:00;;;;;;;1.10;0.75;;;;;;;;;;5074324;28;20067;-82
2023/08/28 11:40:27;;;;;;;1.27;0.80;;;;;;;;;;5108519;28;20048;-82
2023/08/28 11:43:05;;;;;;;3.47;0.90;;;;;;;;;;5082621;28;20052;-81
2023/08/28 11:45:33;;;;;;;1.27;0.88;;;;;;;;;;5087884;28;20052;-81
2023/08/28 11:48:03;;;;;;;1.00;0.95;;;;;;;;;;5071913;28;20051;-81
2023/08/28 11:50:31;;;;;;;1.27;1.08;;;;;;;;;;5093920;28;20059;-81
2023/08/28 11:52:58;;;;;;;0.90;0.73;;;;;;;;;;5088331;28;20048;-81
2023/08/28 11:55:33;;;;;;;0.95;0.88;;;;;;;;;;5083188;28;20516;-81
2023/08/28 11:58:00;;;;;;;4.97;1.15;;;;;;;;;;5094177;28;20047;-81
2023/08/28 12:00:29;;;;;;;1.75;1.00;;;;;;;;;;5101385;28;20529;-81
2023/08/28 12:02:57;;;;;;;1.85;1.00;;;;;;;;;;5092771;28;20044;-81
2023/08/28 12:05:27;;;;;;;0.70;0.70;;;;;;;;;;5087804;28;20501;-81
2023/08/28 12:07:54;;;;;;;1.67;0.90;;;;;;;;;;5106610;28;20055;-81
2023/08/28 12:10:24;;;;;;;1.77;0.80;;;;;;;;;;5084291;28;20067;-81
2023/08/28 12:12:55;;;;;;;0.70;0.70;;;;;;;;;;5065205;28;20052;-81
2023/08/28 12:15:31;;;;;;;2.20;0.90;;;;;;;;;;5090714;28;20490;-81
2023/08/28 12:18:03;;;;;;;1.10;0.90;;;;;;;;;;5077890;28;20062;-81
2023/08/28 12:20:37;;;;;;;0.75;0.70;;;;;;;;;;5093543;28;20055;-81
2023/08/28 12:23:04;;;;;;;0.70;0.70;;;;;;;;;;5089313;28;20055;-81
2023/08/28 12:25:37;;;;;;;1.38;0.95;;;;;;;;;;5096500;28;20041;-81
2023/08/28 12:28:07;;;;;;;0.70;0.70;;;;;;;;;;5095388;28;20056;-81
2023/08/28 12:30:39;;;;;;;1.27;0.82;;;;;;;;;;5107715;28;20043;-81
2023/08/28 12:33:07;;;;;;;0.63;0.55;;;;;;;;;;5109571;22;22017;-83
2023/08/28 12:35:40;;;;;;;2.20;0.80;;;;;;;;;;5071138;28;20043;-83
2023/08/28 12:38:08;;;;;;;1.83;0.90;;;;;;;;;;5043769;28;20045;-82
2023/08/28 12:40:36;;;;;;;1.48;0.70;;;;;;;;;;5071544;28;20056;-81
2023/08/28 12:43:04;;;;;;;0.93;0.63;;;;;;;;;;5070584;28;20051;-81
2023/08/28 12:45:33;;;;;;;1.98;0.80;;;;;;;;;;5077329;28;20059;-81
2023/08/28 12:48:02;;;;;;;0.63;0.57;;;;;;;;;;5092796;28;20054;-82
2023/08/28 12:50:29;;;;;;;1.10;0.90;;;;;;;;;;5069473;28;20391;-82
2023/08/28 12:52:58;;;;;;;0.90;0.90;;;;;;;;;;5094550;28;20422;-82
2023/08/28 12:55:28;;;;;;;2.15;1.10;;;;;;;;;;5087012;28;20383;-82
2023/08/28 12:58:00;;;;;;;0.80;0.80;;;;;;;;;;5082763;28;20059;-82
2023/08/28 13:00:30;;;;;;;1.38;0.77;;;;;;;;;;5075935;28;20052;-83
2023/08/28 13:02:57;;;;;;;1.00;0.93;;;;;;;;;;5070657;28;20055;-82
2023/08/28 13:05:26;;;;;;;1.85;0.82;;;;;;;;;;5087870;28;20052;-82
2023/08/28 13:07:58;;;;;;;0.95;0.80;;;;;;;;;;5075270;28;20406;-82
2023/08/28 13:10:28;;;;;;;0.98;0.88;;;;;;;;;;5090299;28;20044;-82
2023/08/28 13:12:57;;;;;;;1.08;0.82;;;;;;;;;;5094143;28;20504;-82
2023/08/28 13:15:29;;;;;;;11.80;1.48;;;;;;;;;;5081104;28;20056;-82
2023/08/28 13:17:57;;;;;;;1.35;1.00;;;;;;;;;;5073847;28;20071;-82
2023/08/28 13:20:26;;;;;;;0.88;0.75;;;;;;;;;;5077658;28;20418;-82
2023/08/28 13:23:05;;;;;;;1.23;1.13;;;;;;;;;;5094769;28;20055;-82
2023/08/28 13:25:32;;;;;;;5.20;0.88;;;;;;;;;;5085455;28;20402;-82
2023/08/28 13:28:02;;;;;;;1.10;0.90;;;;;;;;;;5095133;28;20043;-82
2023/08/28 13:30:31;;;;;;;1.98;0.80;;;;;;;;;;5058364;28;20044;-82
2023/08/28 13:33:01;;;;;;;0.77;0.60;;;;;;;;;;5091577;28;20052;-82
2023/08/28 13:35:29;;;;;;;1.13;1.02;;;;;;;;;;5085474;28;20036;-82
2023/08/28 13:37:58;;;;;;;1.27;0.80;;;;;;;;;;5091254;28;20063;-82
2023/08/28 13:40:32;;;;;;;1.50;1.40;;;;;;;;;;5086278;28;20051;-82
2023/08/28 13:43:01;;;;;;;1.25;0.70;;;;;;;;;;5087610;28;20055;-82
2023/08/28 13:45:29;;;;;;;1.27;1.17;;;;;;;;;;5108184;28;20045;-82
2023/08/28 13:47:56;;;;;;;2.95;1.40;;;;;;;;;;5091070;28;20036;-82
2023/08/28 13:50:24;;;;;;;1.45;0.93;;;;;;;;;;5077631;28;20048;-82
2023/08/28 13:52:56;;;;;;;2.53;1.75;;;;;;;;;;5089528;28;20059;-82
2023/08/28 13:55:23;;;;;;;0.98;0.85;;;;;;;;;;5092764;28;20032;-82
2023/08/28 13:57:54;;;;;;;1.45;1.10;;;;;;;;;;5093665;28;20047;-81
2023/08/28 14:00:23;;;;;;;2.50;1.00;;;;;;;;;;5080546;28;20048;-82
2023/08/28 14:02:50;;;;;;;1.70;1.10;;;;;;;;;;5071016;28;20056;-82
2023/08/28 14:05:22;;;;;;;1.80;1.13;;;;;;;;;;5087886;28;20453;-82
2023/08/28 14:07:50;;;;;;;1.63;1.00;;;;;;;;;;5071312;28;20579;-82
2023/08/28 14:10:20;;;;;;;1.20;1.08;;;;;;;;;;5086969;28;20067;-82
2023/08/28 14:12:52;;;;;;;2.03;0.90;;;;;;;;;;5073993;28;20053;-82
2023/08/28 14:15:25;;;;;;;1.90;1.33;;;;;;;;;;5092020;28;20054;-81
2023/08/28 14:17:57;;;;;;;1.38;1.20;;;;;;;;;;5076731;28;20048;-82
2023/08/28 14:20:27;;;;;;;1.20;1.00;;;;;;;;;;5090953;28;20059;-82
2023/08/28 14:22:54;;;;;;;1.55;1.08;;;;;;;;;;5070010;28;20056;-82
2023/08/28 14:25:21;;;;;;;1.88;1.20;;;;;;;;;;5096279;28;20040;-82
2023/08/28 14:27:54;;;;;;;2.53;1.48;;;;;;;;;;5077079;28;20051;-82
2023/08/28 14:30:21;;;;;;;1.30;1.20;;;;;;;;;;5085998;28;20052;-82
2023/08/28 14:32:52;;;;;;;2.83;1.33;;;;;;;;;;5072831;28;20074;-82
2023/08/28 14:35:19;;;;;;;1.20;1.10;;;;;;;;;;5073823;28;20441;-82
2023/08/28 14:37:47;;;;;;;0.80;0.80;;;;;;;;;;5091380;28;20521;-82
2023/08/28 14:40:16;;;;;;;1.15;0.93;;;;;;;;;;5089936;28;20509;-82
2023/08/28 14:42:45;;;;;;;2.50;1.13;;;;;;;;;;5093988;28;20417;-82
2023/08/28 14:45:15;;;;;;;1.60;1.00;;;;;;;;;;5092012;28;20044;-82
2023/08/28 14:47:42;;;;;;;1.98;1.35;;;;;;;;;;5075366;28;20048;-82
2023/08/28 14:50:13;;;;;;;1.33;1.08;;;;;;;;;;5074658;28;20070;-82
2023/08/28 14:52:41;;;;;;;2.75;1.50;;;;;;;;;;5090639;28;20056;-82
2023/08/28 14:55:10;;;;;;;1.58;1.20;;;;;;;;;;5078306;28;20055;-82
2023/08/28 14:57:37;;;;;;;1.20;1.10;;;;;;;;;;5097574;28;20052;-82